sensor_id;sensor_type;location;lat;lon;timestamp;pressure;altitude;pressure_sealevel;temperature;humidity
46291;BME280;32023;44.444;26.006;2024-01-16T00:00:21;98775.56;;;4.64;60.95
46291;BME280;32023;44.444;26.006;2024-01-16T00:02:47;98783.47;;;4.65;61.64
46291;BME280;32023;44.444;26.006;2024-01-16T00:05:21;98772.56;;;4.65;61.20
46291;BME280;32023;44.444;26.006;2024-01-16T00:07:47;98782.94;;;4.63;61.20
46291;BME280;32023;44.444;26.006;2024-01-16T00:10:14;98787.31;;;4.64;61.22
46291;BME280;32023;44.444;26.006;2024-01-16T00:12:46;98795.44;;;4.59;61.91
46291;BME280;32023;44.444;26.006;2024-01-16T00:15:19;98784.22;;;4.56;61.49
46291;BME280;32023;44.444;26.006;2024-01-16T00:17:45;98768.94;;;4.55;62.30
46291;BME280;32023;44.444;26.006;2024-01-16T00:20:11;98791.81;;;4.54;61.80
46291;BME280;32023;44.444;26.006;2024-01-16T00:22:39;98793.47;;;4.55;62.21
46291;BME280;32023;44.444;26.006;2024-01-16T00:25:06;98798.09;;;4.54;62.22
46291;BME280;32023;44.444;26.006;2024-01-16T00:27:32;98797.28;;;4.54;62.29
46291;BME280;32023;44.444;26.006;2024-01-16T00:30:04;98800.59;;;4.56;62.82
46291;BME280;32023;44.444;26.006;2024-01-16T00:32:31;98810.41;;;4.57;62.84
46291;BME280;32023;44.444;26.006;2024-01-16T00:34:57;98801.41;;;4.56;62.75
46291;BME280;32023;44.444;26.006;2024-01-16T00:37:23;98816.41;;;4.59;63.46
46291;BME280;32023;44.444;26.006;2024-01-16T00:39:50;98819.69;;;4.61;63.51
46291;BME280;32023;44.444;26.006;2024-01-16T00:42:16;98820.50;;;4.61;63.64
46291;BME280;32023;44.444;26.006;2024-01-16T00:44:42;98811.00;;;4.64;63.23
46291;BME280;32023;44.444;26.006;2024-01-16T00:47:09;98813.75;;;4.69;63.58
46291;BME280;32023;44.444;26.006;2024-01-16T00:49:36;98811.91;;;4.74;63.65
46291;BME280;32023;44.444;26.006;2024-01-16T00:52:04;98805.94;;;4.77;63.58
46291;BME280;32023;44.444;26.006;2024-01-16T00:54:30;98808.13;;;4.80;63.69
46291;BME280;32023;44.444;26.006;2024-01-16T00:56:57;98817.97;;;4.81;63.97
46291;BME280;32023;44.444;26.006;2024-01-16T00:59:28;98811.44;;;4.82;63.51
46291;BME280;32023;44.444;26.006;2024-01-16T01:01:55;98810.09;;;4.85;63.99
46291;BME280;32023;44.444;26.006;2024-01-16T01:04:22;98807.66;;;4.89;64.14
46291;BME280;32023;44.444;26.006;2024-01-16T01:06:48;98812.03;;;4.90;64.08
46291;BME280;32023;44.444;26.006;2024-01-16T01:09:14;98813.16;;;4.94;64.07
46291;BME280;32023;44.444;26.006;2024-01-16T01:11:42;98813.72;;;4.96;63.38
46291;BME280;32023;44.444;26.006;2024-01-16T01:14:10;98807.13;;;4.92;63.37
46291;BME280;32023;44.444;26.006;2024-01-16T01:16:36;98819.94;;;4.91;63.64
46291;BME280;32023;44.444;26.006;2024-01-16T01:19:03;98822.44;;;4.93;63.61
46291;BME280;32023;44.444;26.006;2024-01-16T01:21:29;98810.38;;;4.89;63.78
46291;BME280;32023;44.444;26.006;2024-01-16T01:23:55;98824.19;;;4.77;64.40
46291;BME280;32023;44.444;26.006;2024-01-16T01:26:28;98832.34;;;4.72;64.32
46291;BME280;32023;44.444;26.006;2024-01-16T01:28:54;98826.31;;;4.70;64.91
46291;BME280;32023;44.444;26.006;2024-01-16T01:31:22;98829.06;;;4.70;65.07
46291;BME280;32023;44.444;26.006;2024-01-16T01:33:48;98831.78;;;4.70;65.33
46291;BME280;32023;44.444;26.006;2024-01-16T01:36:15;98827.94;;;4.66;66.31
46291;BME280;32023;44.444;26.006;2024-01-16T01:38:41;98825.72;;;4.63;66.92
46291;BME280;32023;44.444;26.006;2024-01-16T01:41:07;98823.25;;;4.61;66.99
46291;BME280;32023;44.444;26.006;2024-01-16T01:43:34;98822.16;;;4.62;67.28
46291;BME280;32023;44.444;26.006;2024-01-16T01:46:10;98812.34;;;4.61;67.44
46291;BME280;32023;44.444;26.006;2024-01-16T01:48:39;98812.63;;;4.65;67.80
46291;BME280;32023;44.444;26.006;2024-01-16T01:51:06;98812.69;;;4.70;67.65
46291;BME280;32023;44.444;26.006;2024-01-16T01:53:34;98805.88;;;4.72;67.72
46291;BME280;32023;44.444;26.006;2024-01-16T01:56:07;98810.84;;;4.75;67.99
46291;BME280;32023;44.444;26.006;2024-01-16T01:58:37;98817.63;;;4.73;68.15
46291;BME280;32023;44.444;26.006;2024-01-16T02:01:05;98822.78;;;4.69;68.31
46291;BME280;32023;44.444;26.006;2024-01-16T02:03:39;98821.13;;;4.68;68.79
46291;BME280;32023;44.444;26.006;2024-01-16T02:06:06;98827.09;;;4.65;68.81
46291;BME280;32023;44.444;26.006;2024-01-16T02:08:33;98839.03;;;4.59;69.32
46291;BME280;32023;44.444;26.006;2024-01-16T02:11:00;98802.50;;;4.28;69.32
46291;BME280;32023;44.444;26.006;2024-01-16T02:13:30;98848.81;;;4.55;69.80
46291;BME280;32023;44.444;26.006;2024-01-16T02:15:58;98850.34;;;4.46;71.01
46291;BME280;32023;44.444;26.006;2024-01-16T02:18:24;98858.69;;;4.34;71.38
46291;BME280;32023;44.444;26.006;2024-01-16T02:20:51;98863.88;;;4.36;71.52
46291;BME280;32023;44.444;26.006;2024-01-16T02:23:26;98862.81;;;4.37;71.70
46291;BME280;32023;44.444;26.006;2024-01-16T02:25:53;98868.19;;;4.32;72.80
46291;BME280;32023;44.444;26.006;2024-01-16T02:28:20;98867.81;;;4.23;73.59
46291;BME280;32023;44.444;26.006;2024-01-16T02:30:47;98859.16;;;4.26;73.44
46291;BME280;32023;44.444;26.006;2024-01-16T02:33:13;98870.31;;;4.25;73.76
46291;BME280;32023;44.444;26.006;2024-01-16T02:35:39;98877.91;;;4.23;74.26
46291;BME280;32023;44.444;26.006;2024-01-16T02:38:06;98876.00;;;4.23;74.11
46291;BME280;32023;44.444;26.006;2024-01-16T02:40:32;98880.06;;;4.21;75.14
46291;BME280;32023;44.444;26.006;2024-01-16T02:42:58;98872.03;;;4.09;75.42
46291;BME280;32023;44.444;26.006;2024-01-16T02:45:26;98877.75;;;4.08;75.75
46291;BME280;32023;44.444;26.006;2024-01-16T02:47:52;98883.13;;;4.03;76.72
46291;BME280;32023;44.444;26.006;2024-01-16T02:50:18;98877.66;;;4.03;76.67
46291;BME280;32023;44.444;26.006;2024-01-16T02:52:46;98884.19;;;4.02;77.33
46291;BME280;32023;44.444;26.006;2024-01-16T02:55:12;98889.63;;;4.02;77.28
46291;BME280;32023;44.444;26.006;2024-01-16T02:57:39;98891.00;;;4.04;77.74
46291;BME280;32023;44.444;26.006;2024-01-16T03:00:06;98885.91;;;4.08;77.46
46291;BME280;32023;44.444;26.006;2024-01-16T03:02:37;98890.56;;;4.12;77.32
46291;BME280;32023;44.444;26.006;2024-01-16T03:05:04;98890.84;;;4.11;77.53
46291;BME280;32023;44.444;26.006;2024-01-16T03:07:34;98896.81;;;4.08;77.15
46291;BME280;32023;44.444;26.006;2024-01-16T03:10:00;98903.56;;;4.05;77.61
46291;BME280;32023;44.444;26.006;2024-01-16T03:12:28;98903.84;;;4.04;77.86
46291;BME280;32023;44.444;26.006;2024-01-16T03:14:54;98903.56;;;4.05;77.75
46291;BME280;32023;44.444;26.006;2024-01-16T03:17:21;98903.31;;;4.07;77.65
46291;BME280;32023;44.444;26.006;2024-01-16T03:19:47;98910.44;;;4.08;78.10
46291;BME280;32023;44.444;26.006;2024-01-16T03:22:14;98903.31;;;4.07;77.82
46291;BME280;32023;44.444;26.006;2024-01-16T03:24:40;98905.47;;;4.05;77.84
46291;BME280;32023;44.444;26.006;2024-01-16T03:27:06;98905.34;;;3.95;77.95
46291;BME280;32023;44.444;26.006;2024-01-16T03:29:32;98903.63;;;3.88;77.95
46291;BME280;32023;44.444;26.006;2024-01-16T03:32:00;98898.13;;;3.83;77.97
46291;BME280;32023;44.444;26.006;2024-01-16T03:34:27;98900.84;;;3.83;78.30
46291;BME280;32023;44.444;26.006;2024-01-16T03:36:53;98907.34;;;3.82;78.42
46291;BME280;32023;44.444;26.006;2024-01-16T03:39:20;98900.84;;;3.83;78.57
46291;BME280;32023;44.444;26.006;2024-01-16T03:41:46;98911.97;;;3.82;79.06
46291;BME280;32023;44.444;26.006;2024-01-16T03:44:12;98909.19;;;3.77;79.85
46291;BME280;32023;44.444;26.006;2024-01-16T03:46:39;98906.16;;;3.73;80.08
46291;BME280;32023;44.444;26.006;2024-01-16T03:49:05;98930.16;;;3.76;81.10
46291;BME280;32023;44.444;26.006;2024-01-16T03:51:32;98944.91;;;3.80;81.00
46291;BME280;32023;44.444;26.006;2024-01-16T03:53:58;98949.59;;;3.85;81.06
46291;BME280;32023;44.444;26.006;2024-01-16T03:56:25;98952.66;;;3.88;81.37
46291;BME280;32023;44.444;26.006;2024-01-16T03:58:51;98963.53;;;3.88;81.51
46291;BME280;32023;44.444;26.006;2024-01-16T04:01:17;98983.66;;;3.87;81.48
46291;BME280;32023;44.444;26.006;2024-01-16T04:03:44;98985.00;;;3.85;81.62
46291;BME280;32023;44.444;26.006;2024-01-16T04:06:19;98990.09;;;3.81;81.15
46291;BME280;32023;44.444;26.006;2024-01-16T04:08:46;98992.25;;;3.79;81.93
46291;BME280;32023;44.444;26.006;2024-01-16T04:11:13;99006.94;;;3.78;82.14
46291;BME280;32023;44.444;26.006;2024-01-16T04:13:40;99025.44;;;3.76;82.38
46291;BME280;32023;44.444;26.006;2024-01-16T04:16:07;99047.72;;;3.73;82.11
46291;BME280;32023;44.444;26.006;2024-01-16T04:18:39;99056.00;;;3.67;82.68
46291;BME280;32023;44.444;26.006;2024-01-16T04:21:06;99049.59;;;3.56;82.98
46291;BME280;32023;44.444;26.006;2024-01-16T04:23:33;99048.44;;;3.52;83.13
46291;BME280;32023;44.444;26.006;2024-01-16T04:25:59;99057.41;;;3.53;83.13
46291;BME280;32023;44.444;26.006;2024-01-16T04:28:26;99053.88;;;3.52;82.54
46291;BME280;32023;44.444;26.006;2024-01-16T04:30:52;99055.19;;;3.50;82.18
46291;BME280;32023;44.444;26.006;2024-01-16T04:33:19;99069.63;;;3.50;82.29
46291;BME280;32023;44.444;26.006;2024-01-16T04:35:45;99085.47;;;3.53;81.50
46291;BME280;32023;44.444;26.006;2024-01-16T04:38:12;99095.28;;;3.54;81.86
46291;BME280;32023;44.444;26.006;2024-01-16T04:40:43;99102.72;;;3.59;81.31
46291;BME280;32023;44.444;26.006;2024-01-16T04:43:09;99107.91;;;3.60;81.22
46291;BME280;32023;44.444;26.006;2024-01-16T04:45:42;99106.25;;;3.59;80.72
46291;BME280;32023;44.444;26.006;2024-01-16T04:48:08;99108.97;;;3.59;80.41
46291;BME280;32023;44.444;26.006;2024-01-16T04:50:35;99113.34;;;3.60;80.21
46291;BME280;32023;44.444;26.006;2024-01-16T04:53:02;99112.84;;;3.63;80.18
46291;BME280;32023;44.444;26.006;2024-01-16T04:55:29;99105.78;;;3.62;79.80
46291;BME280;32023;44.444;26.006;2024-01-16T04:57:56;99117.97;;;3.60;79.14
46291;BME280;32023;44.444;26.006;2024-01-16T05:00:23;99120.34;;;3.56;79.62
46291;BME280;32023;44.444;26.006;2024-01-16T05:02:50;99123.56;;;3.53;79.00
46291;BME280;32023;44.444;26.006;2024-01-16T05:05:17;99136.84;;;3.50;79.03
46291;BME280;32023;44.444;26.006;2024-01-16T05:07:43;99143.72;;;3.40;79.45
46291;BME280;32023;44.444;26.006;2024-01-16T05:10:11;99151.22;;;3.33;80.09
46291;BME280;32023;44.444;26.006;2024-01-16T05:12:41;99112.78;;;3.02;80.21
46291;BME280;32023;44.444;26.006;2024-01-16T05:15:08;99156.81;;;3.27;79.74
46291;BME280;32023;44.444;26.006;2024-01-16T05:17:37;99170.91;;;3.24;79.87
46291;BME280;32023;44.444;26.006;2024-01-16T05:20:07;99174.09;;;3.21;79.83
46291;BME280;32023;44.444;26.006;2024-01-16T05:22:33;99182.50;;;3.19;80.47
46291;BME280;32023;44.444;26.006;2024-01-16T05:25:00;99189.25;;;3.17;80.17
46291;BME280;32023;44.444;26.006;2024-01-16T05:27:26;99191.03;;;3.11;80.09
46291;BME280;32023;44.444;26.006;2024-01-16T05:29:53;99205.34;;;3.07;80.45
46291;BME280;32023;44.444;26.006;2024-01-16T05:32:19;99209.94;;;3.06;80.06
46291;BME280;32023;44.444;26.006;2024-01-16T05:34:46;99206.03;;;3.02;80.58
46291;BME280;32023;44.444;26.006;2024-01-16T05:37:15;99199.19;;;3.00;80.76
46291;BME280;32023;44.444;26.006;2024-01-16T05:39:45;99198.63;;;2.98;80.63
46291;BME280;32023;44.444;26.006;2024-01-16T05:42:12;99204.56;;;2.95;80.72
46291;BME280;32023;44.444;26.006;2024-01-16T05:44:41;99209.53;;;2.86;80.72
46291;BME280;32023;44.444;26.006;2024-01-16T05:47:08;99212.47;;;2.84;80.72
46291;BME280;32023;44.444;26.006;2024-01-16T05:49:42;99207.16;;;2.78;80.87
46291;BME280;32023;44.444;26.006;2024-01-16T05:52:08;99250.16;;;2.69;81.03
46291;BME280;32023;44.444;26.006;2024-01-16T05:54:35;99265.28;;;2.65;81.81
46291;BME280;32023;44.444;26.006;2024-01-16T05:57:01;99286.56;;;2.57;82.17
46291;BME280;32023;44.444;26.006;2024-01-16T05:59:28;99293.75;;;2.51;82.92
46291;BME280;32023;44.444;26.006;2024-01-16T06:01:58;99297.78;;;2.49;83.49
46291;BME280;32023;44.444;26.006;2024-01-16T06:04:24;99311.00;;;2.45;84.02
46291;BME280;32023;44.444;26.006;2024-01-16T06:06:53;99307.69;;;2.43;83.73
46291;BME280;32023;44.444;26.006;2024-01-16T06:09:19;99324.44;;;2.40;84.04
46291;BME280;32023;44.444;26.006;2024-01-16T06:11:45;99315.00;;;2.42;84.09
46291;BME280;32023;44.444;26.006;2024-01-16T06:14:15;99310.53;;;2.48;84.18
46291;BME280;32023;44.444;26.006;2024-01-16T06:16:47;99329.94;;;2.63;83.42
46291;BME280;32023;44.444;26.006;2024-01-16T06:19:14;99326.28;;;2.81;83.20
46291;BME280;32023;44.444;26.006;2024-01-16T06:21:44;99329.16;;;2.98;81.69
46291;BME280;32023;44.444;26.006;2024-01-16T06:24:10;99337.75;;;3.18;81.17
46291;BME280;32023;44.444;26.006;2024-01-16T06:26:37;99337.88;;;3.34;79.57
46291;BME280;32023;44.444;26.006;2024-01-16T06:29:11;99350.63;;;3.57;78.66
46291;BME280;32023;44.444;26.006;2024-01-16T06:31:37;99345.03;;;3.75;77.45
46291;BME280;32023;44.444;26.006;2024-01-16T06:34:04;99360.69;;;3.97;75.67
46291;BME280;32023;44.444;26.006;2024-01-16T06:36:30;99372.84;;;4.17;74.40
46291;BME280;32023;44.444;26.006;2024-01-16T06:39:03;99391.00;;;4.40;73.32
46291;BME280;32023;44.444;26.006;2024-01-16T06:44:06;99409.19;;;4.79;70.60
46291;BME280;32023;44.444;26.006;2024-01-16T06:46:35;99412.66;;;4.92;70.67
46291;BME280;32023;44.444;26.006;2024-01-16T06:49:01;99430.09;;;4.91;70.30
46291;BME280;32023;44.444;26.006;2024-01-16T06:51:34;99428.84;;;4.81;69.56
46291;BME280;32023;44.444;26.006;2024-01-16T06:54:01;99436.75;;;4.66;70.42
46291;BME280;32023;44.444;26.006;2024-01-16T06:56:27;99436.78;;;4.55;70.58
46291;BME280;32023;44.444;26.006;2024-01-16T06:58:54;99439.06;;;4.46;70.38
46291;BME280;32023;44.444;26.006;2024-01-16T07:01:21;99435.09;;;4.37;71.27
46291;BME280;32023;44.444;26.006;2024-01-16T07:03:51;99449.25;;;4.22;71.19
46291;BME280;32023;44.444;26.006;2024-01-16T07:06:18;99458.47;;;4.21;71.35
46291;BME280;32023;44.444;26.006;2024-01-16T07:08:45;99477.38;;;4.40;71.41
46291;BME280;32023;44.444;26.006;2024-01-16T07:11:11;99475.97;;;4.65;70.05
46291;BME280;32023;44.444;26.006;2024-01-16T07:13:49;99474.97;;;4.55;69.80
46291;BME280;32023;44.444;26.006;2024-01-16T07:16:16;99479.88;;;4.41;69.85
46291;BME280;32023;44.444;26.006;2024-01-16T07:18:42;99489.59;;;4.37;69.46
46291;BME280;32023;44.444;26.006;2024-01-16T07:21:19;99491.72;;;4.35;69.95
46291;BME280;32023;44.444;26.006;2024-01-16T07:23:47;99505.94;;;4.37;70.29
46291;BME280;32023;44.444;26.006;2024-01-16T07:26:23;99522.31;;;4.37;69.77
46291;BME280;32023;44.444;26.006;2024-01-16T07:28:53;99529.88;;;4.35;69.95
46291;BME280;32023;44.444;26.006;2024-01-16T07:31:20;99529.28;;;4.33;70.64
46291;BME280;32023;44.444;26.006;2024-01-16T07:33:49;99551.31;;;4.31;70.44
46291;BME280;32023;44.444;26.006;2024-01-16T07:36:15;99559.16;;;4.28;69.93
46291;BME280;32023;44.444;26.006;2024-01-16T07:38:45;99572.44;;;4.24;69.87
46291;BME280;32023;44.444;26.006;2024-01-16T07:41:14;99565.31;;;4.23;70.12
46291;BME280;32023;44.444;26.006;2024-01-16T07:43:41;99566.50;;;4.27;70.19
46291;BME280;32023;44.444;26.006;2024-01-16T07:46:07;99576.47;;;4.33;69.73
46291;BME280;32023;44.444;26.006;2024-01-16T07:48:34;99576.19;;;4.47;69.26
46291;BME280;32023;44.444;26.006;2024-01-16T07:51:00;99579.59;;;4.65;68.61
46291;BME280;32023;44.444;26.006;2024-01-16T07:53:27;99586.06;;;4.76;67.96
46291;BME280;32023;44.444;26.006;2024-01-16T07:55:54;99588.53;;;4.89;67.53
46291;BME280;32023;44.444;26.006;2024-01-16T07:58:21;99599.72;;;5.16;66.78
46291;BME280;32023;44.444;26.006;2024-01-16T08:00:47;99598.47;;;5.35;64.89
46291;BME280;32023;44.444;26.006;2024-01-16T08:03:14;99597.19;;;5.54;63.51
46291;BME280;32023;44.444;26.006;2024-01-16T08:05:45;99598.59;;;5.73;62.83
46291;BME280;32023;44.444;26.006;2024-01-16T08:08:11;99594.16;;;6.01;61.58
46291;BME280;32023;44.444;26.006;2024-01-16T08:10:41;99588.59;;;6.29;61.04
46291;BME280;32023;44.444;26.006;2024-01-16T08:13:23;99592.69;;;6.48;59.78
46291;BME280;32023;44.444;26.006;2024-01-16T08:15:53;99610.41;;;6.62;58.96
46291;BME280;32023;44.444;26.006;2024-01-16T08:18:19;99621.22;;;6.74;58.31
46291;BME280;32023;44.444;26.006;2024-01-16T08:20:49;99619.78;;;7.10;57.90
46291;BME280;32023;44.444;26.006;2024-01-16T08:23:15;99615.78;;;7.44;56.50
46291;BME280;32023;44.444;26.006;2024-01-16T08:25:41;99631.50;;;7.81;55.04
46291;BME280;32023;44.444;26.006;2024-01-16T08:28:10;99632.09;;;8.14;53.66
46291;BME280;32023;44.444;26.006;2024-01-16T08:30:37;99639.69;;;8.39;53.29
46291;BME280;32023;44.444;26.006;2024-01-16T08:33:03;99631.66;;;8.64;52.01
46291;BME280;32023;44.444;26.006;2024-01-16T08:35:29;99638.41;;;8.94;50.99
46291;BME280;32023;44.444;26.006;2024-01-16T08:37:56;99654.97;;;9.09;50.19
46291;BME280;32023;44.444;26.006;2024-01-16T08:40:22;99662.97;;;9.21;50.77
46291;BME280;32023;44.444;26.006;2024-01-16T08:42:48;99657.00;;;9.39;49.50
46291;BME280;32023;44.444;26.006;2024-01-16T08:45:23;99658.19;;;9.78;48.37
46291;BME280;32023;44.444;26.006;2024-01-16T08:47:52;99653.59;;;10.04;47.71
46291;BME280;32023;44.444;26.006;2024-01-16T08:50:18;99664.63;;;10.19;47.04
46291;BME280;32023;44.444;26.006;2024-01-16T08:52:44;99659.63;;;10.06;46.98
46291;BME280;32023;44.444;26.006;2024-01-16T08:55:11;99670.03;;;9.79;46.79
46291;BME280;32023;44.444;26.006;2024-01-16T08:57:37;99679.91;;;9.64;46.55
46291;BME280;32023;44.444;26.006;2024-01-16T09:00:07;99692.44;;;9.35;47.58
46291;BME280;32023;44.444;26.006;2024-01-16T09:02:40;99694.53;;;9.13;47.73
46291;BME280;32023;44.444;26.006;2024-01-16T09:05:10;99701.38;;;9.10;48.20
46291;BME280;32023;44.444;26.006;2024-01-16T09:07:36;99686.84;;;9.15;48.24
46291;BME280;32023;44.444;26.006;2024-01-16T09:10:03;99714.84;;;9.79;47.25
46291;BME280;32023;44.444;26.006;2024-01-16T09:12:29;99714.16;;;10.24;45.92
46291;BME280;32023;44.444;26.006;2024-01-16T09:14:56;99716.38;;;10.62;45.21
46291;BME280;32023;44.444;26.006;2024-01-16T09:17:22;99720.22;;;10.82;43.99
46291;BME280;32023;44.444;26.006;2024-01-16T09:19:48;99722.72;;;10.48;43.39
46291;BME280;32023;44.444;26.006;2024-01-16T09:22:16;99730.13;;;10.22;43.93
46291;BME280;32023;44.444;26.006;2024-01-16T09:24:44;99735.59;;;10.12;43.86
46291;BME280;32023;44.444;26.006;2024-01-16T09:27:12;99738.66;;;10.36;44.33
46291;BME280;32023;44.444;26.006;2024-01-16T09:29:40;99735.34;;;10.19;43.93
46291;BME280;32023;44.444;26.006;2024-01-16T09:32:07;99745.56;;;10.53;43.37
46291;BME280;32023;44.444;26.006;2024-01-16T09:34:33;99739.69;;;11.26;41.84
46291;BME280;32023;44.444;26.006;2024-01-16T09:36:59;99751.00;;;11.24;41.58
46291;BME280;32023;44.444;26.006;2024-01-16T09:39:29;99746.31;;;11.15;41.37
46291;BME280;32023;44.444;26.006;2024-01-16T09:42:03;99744.47;;;10.80;42.03
46291;BME280;32023;44.444;26.006;2024-01-16T09:44:30;99749.97;;;10.70;42.23
46291;BME280;32023;44.444;26.006;2024-01-16T09:46:58;99758.78;;;10.67;42.14
46291;BME280;32023;44.444;26.006;2024-01-16T09:49:28;99760.72;;;10.46;39.05
46291;BME280;32023;44.444;26.006;2024-01-16T09:51:55;99758.47;;;10.28;39.16
46291;BME280;32023;44.444;26.006;2024-01-16T09:54:25;99757.91;;;10.26;38.00
46291;BME280;32023;44.444;26.006;2024-01-16T09:56:54;99753.25;;;10.61;37.49
46291;BME280;32023;44.444;26.006;2024-01-16T09:59:23;99762.06;;;10.33;38.47
46291;BME280;32023;44.444;26.006;2024-01-16T10:01:55;99761.19;;;10.18;38.09
46291;BME280;32023;44.444;26.006;2024-01-16T10:04:22;99763.56;;;9.89;38.61
46291;BME280;32023;44.444;26.006;2024-01-16T10:06:48;99773.63;;;9.63;39.29
46291;BME280;32023;44.444;26.006;2024-01-16T10:09:16;99777.19;;;9.58;38.89
46291;BME280;32023;44.444;26.006;2024-01-16T10:11:42;99779.00;;;9.38;39.96
46291;BME280;32023;44.444;26.006;2024-01-16T10:14:09;99767.31;;;9.67;40.31
46291;BME280;32023;44.444;26.006;2024-01-16T10:19:23;99773.88;;;10.39;38.68
46291;BME280;32023;44.444;26.006;2024-01-16T10:21:50;99768.66;;;11.13;37.68
46291;BME280;32023;44.444;26.006;2024-01-16T10:24:17;99772.91;;;13.35;34.03
46291;BME280;32023;44.444;26.006;2024-01-16T10:26:43;99765.97;;;15.89;30.12
46291;BME280;32023;44.444;26.006;2024-01-16T10:29:14;99761.19;;;17.42;27.51
46291;BME280;32023;44.444;26.006;2024-01-16T10:31:43;99757.31;;;18.65;25.69
46291;BME280;32023;44.444;26.006;2024-01-16T10:34:20;99767.22;;;19.52;24.53
46291;BME280;32023;44.444;26.006;2024-01-16T10:36:51;99760.59;;;20.32;23.39
46291;BME280;32023;44.444;26.006;2024-01-16T10:39:23;99742.88;;;22.29;22.19
46291;BME280;32023;44.444;26.006;2024-01-16T10:41:59;99749.66;;;23.63;19.85
46291;BME280;32023;44.444;26.006;2024-01-16T10:44:26;99755.72;;;23.22;19.37
46291;BME280;32023;44.444;26.006;2024-01-16T10:47:12;99765.50;;;22.60;19.98
46291;BME280;32023;44.444;26.006;2024-01-16T10:49:38;99780.38;;;23.72;19.53
46291;BME280;32023;44.444;26.006;2024-01-16T10:52:10;99773.50;;;24.67;18.27
46291;BME280;32023;44.444;26.006;2024-01-16T10:54:40;99785.38;;;25.72;17.17
46291;BME280;32023;44.444;26.006;2024-01-16T10:57:07;99786.25;;;24.96;17.66
46291;BME280;32023;44.444;26.006;2024-01-16T11:00:01;99789.03;;;23.79;18.21
46291;BME280;32023;44.444;26.006;2024-01-16T11:02:36;99781.28;;;23.44;18.62
46291;BME280;32023;44.444;26.006;2024-01-16T11:12:11;99781.22;;;26.34;15.08
46291;BME280;32023;44.444;26.006;2024-01-16T11:18:46;99792.00;;;25.41;15.35
46291;BME280;32023;44.444;26.006;2024-01-16T11:21:16;99792.22;;;25.94;14.85
46291;BME280;32023;44.444;26.006;2024-01-16T11:23:46;99768.22;;;24.46;15.23
46291;BME280;32023;44.444;26.006;2024-01-16T11:26:28;99799.63;;;23.85;16.19
46291;BME280;32023;44.444;26.006;2024-01-16T11:28:57;99802.97;;;24.07;15.81
46291;BME280;32023;44.444;26.006;2024-01-16T11:31:52;99780.47;;;23.60;15.71
46291;BME280;32023;44.444;26.006;2024-01-16T11:34:55;99795.13;;;25.36;14.80
46291;BME280;32023;44.444;26.006;2024-01-16T11:37:28;99804.97;;;26.33;14.49
46291;BME280;32023;44.444;26.006;2024-01-16T11:42:48;99808.78;;;28.99;12.26
46291;BME280;32023;44.444;26.006;2024-01-16T11:48:15;99820.44;;;29.80;11.14
46291;BME280;32023;44.444;26.006;2024-01-16T11:50:43;99815.25;;;28.99;11.66
46291;BME280;32023;44.444;26.006;2024-01-16T11:53:09;99823.25;;;28.80;12.09
46291;BME280;32023;44.444;26.006;2024-01-16T12:01:19;99834.22;;;26.97;12.81
46291;BME280;32023;44.444;26.006;2024-01-16T12:04:09;99851.81;;;26.60;12.86
46291;BME280;32023;44.444;26.006;2024-01-16T12:06:36;99856.09;;;27.29;12.71
46291;BME280;32023;44.444;26.006;2024-01-16T12:09:16;99854.31;;;26.39;13.04
46291;BME280;32023;44.444;26.006;2024-01-16T12:11:57;99857.59;;;25.19;13.23
46291;BME280;32023;44.444;26.006;2024-01-16T12:14:24;99861.28;;;24.53;13.72
46291;BME280;32023;44.444;26.006;2024-01-16T12:16:52;99855.03;;;24.28;13.63
46291;BME280;32023;44.444;26.006;2024-01-16T12:19:18;99862.41;;;23.89;13.17
46291;BME280;32023;44.444;26.006;2024-01-16T12:21:45;99866.75;;;23.43;13.94
46291;BME280;32023;44.444;26.006;2024-01-16T12:24:15;99868.13;;;24.21;13.59
46291;BME280;32023;44.444;26.006;2024-01-16T12:26:42;99859.47;;;24.45;13.09
46291;BME280;32023;44.444;26.006;2024-01-16T12:29:10;99870.19;;;24.24;13.77
46291;BME280;32023;44.444;26.006;2024-01-16T12:31:36;99866.34;;;24.48;13.48
46291;BME280;32023;44.444;26.006;2024-01-16T12:34:09;99882.97;;;24.21;13.75
46291;BME280;32023;44.444;26.006;2024-01-16T12:36:36;99888.78;;;22.53;14.96
46291;BME280;32023;44.444;26.006;2024-01-16T12:39:04;99891.81;;;22.24;15.44
46291;BME280;32023;44.444;26.006;2024-01-16T12:41:37;99900.59;;;21.15;16.26
46291;BME280;32023;44.444;26.006;2024-01-16T12:44:07;99900.69;;;20.01;17.14
46291;BME280;32023;44.444;26.006;2024-01-16T12:46:33;99901.44;;;19.12;17.45
46291;BME280;32023;44.444;26.006;2024-01-16T12:49:03;99916.84;;;18.84;17.86
46291;BME280;32023;44.444;26.006;2024-01-16T12:51:30;99904.81;;;18.27;18.50
46291;BME280;32023;44.444;26.006;2024-01-16T12:54:14;99931.28;;;17.18;19.76
46291;BME280;32023;44.444;26.006;2024-01-16T12:56:44;99927.28;;;16.61;21.17
46291;BME280;32023;44.444;26.006;2024-01-16T12:59:12;99941.03;;;16.39;21.52
46291;BME280;32023;44.444;26.006;2024-01-16T13:01:44;99950.78;;;15.45;22.05
46291;BME280;32023;44.444;26.006;2024-01-16T13:04:12;99945.91;;;14.80;23.00
46291;BME280;32023;44.444;26.006;2024-01-16T13:06:45;99950.13;;;15.15;23.21
46291;BME280;32023;44.444;26.006;2024-01-16T13:09:14;99958.06;;;15.40;23.02
46291;BME280;32023;44.444;26.006;2024-01-16T13:12:19;99953.44;;;15.17;23.06
46291;BME280;32023;44.444;26.006;2024-01-16T13:14:46;99956.75;;;14.77;23.86
46291;BME280;32023;44.444;26.006;2024-01-16T13:17:15;99972.66;;;13.90;24.97
46291;BME280;32023;44.444;26.006;2024-01-16T13:20:03;99989.97;;;13.43;25.43
46291;BME280;32023;44.444;26.006;2024-01-16T13:22:49;99976.66;;;13.01;25.83
46291;BME280;32023;44.444;26.006;2024-01-16T13:25:16;99995.00;;;12.77;26.42
46291;BME280;32023;44.444;26.006;2024-01-16T13:27:42;99993.84;;;12.88;26.37
46291;BME280;32023;44.444;26.006;2024-01-16T13:30:11;99992.31;;;12.62;26.74
46291;BME280;32023;44.444;26.006;2024-01-16T13:32:40;100003.41;;;12.51;27.16